Portada
METAR-TAF:

METAR-TAF

Aeroports :

Oxford, Anglaterra

latitud: 51-50-13N, longitud: 1-19-12W, altitud: 82 m

Observació

L'informe es va fer fa 31 minuts, a les 15:50 UTC
Vent 13 kt del Sud-Oest
Temperatura 9°C
Humitat 87%
Pressió 1011 hPa
Visibilitat 10 km o més
Cel ennuvolat a una alçada de 1800 ft

METAR: EGTK 071550Z 23013KT 9999 BKN018 09/07 Q1011

Hora: 16:21 (16:21 UTC)

Pronòstic

L'informe es va fer fa 2 hores i 20 minuts, a les 14:01 UTC
Pronòstic vàlid del 07 a les 15 UTC al 07 a les 22 UTC
Vent 9 kt del Sud/Sud-Oest
Visibilitat 10 km o més
Núvols disperses a una alçada de 3500 ft
Probabilitat 40% :
Temporalment
l' 07 a les 18 UTC al 07 a les 22 UTC
Cel ennuvolat a una alçada de 1400 ft
Evolucionant progressivament
l' 07 a les 20 UTC al 07 a les 22 UTC
Vent 15 kt del Sud-Oest amb ràfegues de 25 kt

TAF: EGTK 071401Z 0715/0722 21009KT 9999 SCT035 PROB40 TEMPO 0718/0722 BKN014 BECMG 0720/0722 23015G25KT

Observacions i pronòstics meteorològics de més de 4000 aeroports (METAR i TAF).

Les estacions disponibles són els punts grocs i vermells al mapa.

Posi el ratolí al punt desitjat per veure el nom de l'estació.

Feu clic per veure les observacions i els pronòstics meteorològics.

Per canviar el mapa: feu clic els botons verds amb una creu de color negre per apropar; al botó verd amb un guió per allunyar la imatge; o en les fletxes verdes per a mapes adjacents.


METAR-TAF: